createdAt,value
2022-12-15T00:00:52.014Z,1.62
2022-12-15T00:03:12.663Z,1.61
2022-12-15T00:05:33.461Z,1.62
2022-12-15T00:07:54.188Z,1.62
2022-12-15T00:10:16.006Z,1.62
2022-12-15T00:12:36.928Z,1.64
2022-12-15T00:14:57.565Z,1.65
2022-12-15T00:17:18.345Z,1.66
2022-12-15T00:19:38.741Z,1.67
2022-12-15T00:21:59.548Z,1.64
2022-12-15T00:24:20.090Z,1.62
2022-12-15T00:26:42.121Z,1.61
2022-12-15T00:29:02.924Z,1.65
2022-12-15T00:31:23.874Z,1.67
2022-12-15T00:33:44.581Z,1.68
2022-12-15T00:36:17.415Z,1.68
2022-12-15T00:38:37.981Z,1.67
2022-12-15T00:40:41.000Z,1.66
2022-12-15T00:42:45.286Z,1.66
2022-12-15T00:44:52.804Z,1.67
2022-12-15T00:46:54.906Z,1.70
2022-12-15T00:48:58.381Z,1.72
2022-12-15T00:51:00.306Z,1.71
2022-12-15T00:53:20.596Z,1.73
2022-12-15T00:55:43.915Z,1.71
2022-12-15T00:58:07.902Z,1.73
2022-12-15T01:00:29.644Z,1.70
2022-12-15T01:02:50.721Z,1.63
2022-12-15T01:05:11.471Z,1.60
2022-12-15T01:07:31.843Z,1.61
2022-12-15T01:09:52.526Z,1.60
2022-12-15T01:12:13.429Z,1.59
2022-12-15T01:14:35.345Z,1.60
2022-12-15T01:16:56.041Z,1.61
2022-12-15T01:19:16.748Z,1.61
2022-12-15T01:21:24.081Z,1.59
2022-12-15T01:23:28.576Z,1.62
2022-12-15T01:25:31.847Z,1.64
2022-12-15T01:27:35.030Z,1.64
2022-12-15T01:29:39.462Z,1.64
2022-12-15T01:31:43.999Z,1.64
2022-12-15T01:33:47.314Z,1.62
2022-12-15T01:35:57.147Z,1.63
2022-12-15T01:38:00.168Z,1.62
2022-12-15T01:40:20.847Z,1.61
2022-12-15T01:42:24.255Z,1.58
2022-12-15T01:44:27.247Z,1.55
2022-12-15T01:46:33.245Z,1.55
2022-12-15T01:48:40.341Z,1.53
2022-12-15T01:50:48.323Z,1.56
2022-12-15T01:52:51.656Z,1.54
2022-12-15T01:54:56.672Z,1.58
2022-12-15T01:57:03.554Z,1.60
2022-12-15T01:59:09.290Z,1.60
2022-12-15T02:01:12.604Z,1.59
2022-12-15T02:03:17.284Z,1.62
2022-12-15T02:05:21.828Z,1.62
2022-12-15T02:07:39.123Z,1.63
2022-12-15T02:09:43.259Z,1.62
2022-12-15T02:11:58.184Z,1.61
2022-12-15T02:14:03.433Z,1.65
2022-12-15T02:16:14.869Z,1.66
2022-12-15T02:18:23.725Z,1.59
2022-12-15T02:20:42.831Z,1.58
2022-12-15T02:23:03.529Z,1.59
2022-12-15T02:25:31.520Z,1.61
2022-12-15T02:27:46.382Z,1.59
2022-12-15T02:30:26.575Z,1.61
2022-12-15T02:32:32.998Z,1.58
2022-12-15T02:34:41.254Z,1.59
2022-12-15T02:36:46.437Z,1.60
2022-12-15T02:38:49.667Z,1.58
2022-12-15T02:40:59.159Z,1.59
2022-12-15T02:43:05.761Z,1.60
2022-12-15T02:45:11.102Z,1.62
2022-12-15T02:47:28.578Z,1.63
2022-12-15T02:49:40.652Z,1.59
2022-12-15T02:51:50.959Z,1.60
2022-12-15T02:54:14.041Z,1.62
2022-12-15T02:56:22.837Z,1.66
2022-12-15T02:58:29.358Z,1.65
2022-12-15T03:00:37.124Z,1.66
2022-12-15T03:02:43.496Z,1.65
2022-12-15T03:04:48.114Z,1.63
2022-12-15T03:07:00.787Z,1.65
2022-12-15T03:09:05.115Z,1.65
2022-12-15T03:11:08.425Z,1.66
2022-12-15T03:13:11.520Z,1.65
2022-12-15T03:15:15.086Z,1.67
2022-12-15T03:17:18.164Z,1.68
2022-12-15T03:19:21.345Z,1.67
2022-12-15T03:21:25.765Z,1.68
2022-12-15T03:23:29.490Z,1.69
2022-12-15T03:25:32.928Z,1.72
2022-12-15T03:27:37.838Z,1.72
2022-12-15T03:29:41.080Z,1.69
2022-12-15T03:31:44.352Z,1.68
2022-12-15T03:33:47.578Z,1.65
2022-12-15T03:35:51.214Z,1.68
2022-12-15T03:37:55.668Z,1.70
2022-12-15T03:39:58.716Z,1.69
2022-12-15T03:42:02.495Z,1.69
2022-12-15T03:44:05.960Z,1.72
2022-12-15T03:46:09.894Z,1.72
2022-12-15T03:48:13.080Z,1.68
2022-12-15T03:50:18.601Z,1.71
2022-12-15T03:52:22.141Z,1.69
2022-12-15T03:54:26.597Z,1.69
2022-12-15T03:56:29.642Z,1.69
2022-12-15T03:58:32.722Z,1.71
2022-12-15T04:00:35.762Z,1.69
2022-12-15T04:02:38.916Z,1.66
2022-12-15T04:04:42.078Z,1.55
2022-12-15T04:06:45.348Z,1.59
2022-12-15T04:08:49.779Z,1.60
2022-12-15T04:10:55.024Z,1.64
2022-12-15T04:12:59.520Z,1.63
2022-12-15T04:15:02.576Z,1.58
2022-12-15T04:17:05.974Z,1.64
2022-12-15T04:19:26.832Z,1.59
2022-12-15T04:21:29.974Z,1.62
2022-12-15T04:23:33.331Z,1.63
2022-12-15T04:25:55.498Z,1.65
2022-12-15T04:28:17.515Z,1.67
2022-12-15T04:30:38.197Z,1.66
2022-12-15T04:32:58.993Z,1.60
2022-12-15T04:35:19.867Z,1.63
2022-12-15T04:37:40.958Z,1.65
2022-12-15T04:40:03.745Z,1.62
2022-12-15T04:42:24.942Z,1.60
2022-12-15T04:44:49.999Z,1.58
2022-12-15T04:47:11.054Z,1.52
2022-12-15T04:49:31.758Z,1.51
2022-12-15T04:51:52.479Z,1.47
2022-12-15T04:54:13.453Z,1.45
2022-12-15T04:56:34.824Z,1.44
2022-12-15T04:58:55.220Z,1.39
2022-12-15T05:01:16.955Z,1.40
2022-12-15T05:03:38.074Z,1.39
2022-12-15T05:05:58.804Z,1.35
2022-12-15T05:08:19.290Z,1.38
2022-12-15T05:10:40.258Z,1.41
2022-12-15T05:13:00.913Z,1.43
2022-12-15T05:15:21.549Z,1.45
2022-12-15T05:17:43.792Z,1.49
2022-12-15T05:20:04.288Z,1.48
2022-12-15T05:22:25.183Z,1.50
2022-12-15T05:24:45.812Z,1.48
2022-12-15T05:27:06.292Z,1.46
2022-12-15T05:29:27.224Z,1.52
2022-12-15T05:31:52.648Z,1.52
2022-12-15T05:34:04.531Z,1.54
2022-12-15T05:36:32.497Z,1.54
2022-12-15T05:38:38.189Z,1.57
2022-12-15T05:40:41.359Z,1.56
2022-12-15T05:42:44.427Z,1.55
2022-12-15T05:44:53.704Z,1.55
2022-12-15T05:46:57.138Z,1.60
2022-12-15T05:49:03.972Z,1.61
2022-12-15T05:51:08.187Z,1.64
2022-12-15T05:53:13.962Z,1.64
2022-12-15T05:55:17.944Z,1.66
2022-12-15T05:57:21.042Z,1.67
2022-12-15T05:59:24.158Z,1.68
2022-12-15T06:01:28.064Z,1.73
2022-12-15T06:03:31.766Z,1.69
2022-12-15T06:05:36.567Z,1.67
2022-12-15T06:07:39.692Z,1.65
2022-12-15T06:09:43.603Z,1.62
2022-12-15T06:11:46.986Z,1.56
2022-12-15T06:13:50.645Z,1.58
2022-12-15T06:15:58.302Z,1.59
2022-12-15T06:18:01.644Z,1.53
2022-12-15T06:20:05.342Z,1.53
2022-12-15T06:22:11.185Z,1.52
2022-12-15T06:24:14.258Z,1.54
2022-12-15T06:26:20.495Z,1.52
2022-12-15T06:28:25.090Z,1.53
2022-12-15T06:30:28.248Z,1.49
2022-12-15T06:32:31.421Z,1.46
2022-12-15T06:34:34.594Z,1.45
2022-12-15T06:36:37.985Z,1.49
2022-12-15T06:38:43.654Z,1.50
2022-12-15T06:40:46.833Z,1.53
2022-12-15T06:42:50.012Z,1.53
2022-12-15T06:44:53.112Z,1.56
2022-12-15T06:46:56.280Z,1.59
2022-12-15T06:49:00.345Z,1.59
2022-12-15T06:51:05.410Z,1.62
2022-12-15T06:53:08.628Z,1.57
2022-12-15T06:55:14.246Z,1.60
2022-12-15T06:57:17.423Z,1.56
2022-12-15T06:59:20.711Z,1.59
2022-12-15T07:01:24.952Z,1.56
2022-12-15T07:03:28.508Z,1.61
2022-12-15T07:05:32.019Z,1.60
2022-12-15T07:07:35.261Z,1.61
2022-12-15T07:09:38.420Z,1.66
2022-12-15T07:11:51.327Z,1.69
2022-12-15T07:13:54.951Z,1.70
2022-12-15T07:16:00.644Z,1.73
2022-12-15T07:18:04.559Z,1.71
2022-12-15T07:20:08.870Z,1.71
2022-12-15T07:22:12.284Z,1.71
2022-12-15T07:24:15.549Z,1.69
2022-12-15T07:26:18.898Z,1.70
2022-12-15T07:28:25.969Z,1.72
2022-12-15T07:30:33.599Z,1.66
2022-12-15T07:32:40.199Z,1.63
2022-12-15T07:34:43.503Z,1.65
2022-12-15T07:36:52.086Z,1.57
2022-12-15T07:39:00.913Z,1.53
2022-12-15T07:41:05.690Z,1.50
2022-12-15T07:43:09.120Z,1.51
2022-12-15T07:45:14.254Z,1.53
2022-12-15T07:47:17.474Z,1.57
2022-12-15T07:49:21.665Z,1.60
2022-12-15T07:51:24.862Z,1.66
2022-12-15T07:53:29.080Z,1.68
2022-12-15T07:55:57.606Z,1.73
2022-12-15T07:57:55.979Z,1.82
2022-12-15T07:59:59.336Z,1.85
2022-12-15T08:02:04.623Z,1.92
2022-12-15T08:04:08.214Z,1.90
2022-12-15T08:06:13.446Z,1.89
2022-12-15T08:08:18.404Z,1.94
2022-12-15T08:10:21.633Z,1.94
2022-12-15T08:12:24.910Z,1.94
2022-12-15T08:14:28.790Z,1.98
2022-12-15T08:16:34.614Z,1.95
2022-12-15T08:18:40.041Z,1.93
2022-12-15T08:20:43.372Z,1.96
2022-12-15T08:22:46.798Z,1.88
2022-12-15T08:24:50.204Z,1.73
2022-12-15T08:26:53.622Z,1.74
2022-12-15T08:29:11.898Z,1.67
2022-12-15T08:31:22.488Z,1.59
2022-12-15T08:33:25.920Z,1.59
2022-12-15T08:35:55.295Z,1.55
2022-12-15T08:37:53.877Z,1.53
2022-12-15T08:39:57.255Z,1.55
2022-12-15T08:42:03.193Z,1.59
2022-12-15T08:44:06.565Z,1.67
2022-12-15T08:46:10.059Z,1.65
2022-12-15T08:48:13.326Z,1.71
2022-12-15T08:50:17.219Z,1.78
2022-12-15T08:52:21.863Z,1.81
2022-12-15T08:54:25.080Z,1.85
2022-12-15T08:56:30.336Z,1.91
2022-12-15T08:58:33.884Z,1.92
2022-12-15T09:00:37.047Z,1.97
2022-12-15T09:02:40.486Z,2.00
2022-12-15T09:04:45.325Z,2.00
2022-12-15T09:06:50.803Z,2.01
2022-12-15T09:08:57.632Z,1.96
2022-12-15T09:11:01.364Z,2.03
2022-12-15T09:13:04.583Z,2.08
2022-12-15T09:15:08.700Z,2.05
2022-12-15T09:17:12.835Z,2.08
2022-12-15T09:19:16.156Z,2.11
2022-12-15T09:21:22.432Z,2.13
2022-12-15T09:23:25.529Z,2.12
2022-12-15T09:25:30.240Z,2.12
2022-12-15T09:27:35.027Z,2.10
2022-12-15T09:29:38.268Z,2.07
2022-12-15T09:31:44.697Z,2.09
2022-12-15T09:33:48.175Z,2.17
2022-12-15T09:35:51.736Z,2.20
2022-12-15T09:37:55.004Z,2.21
2022-12-15T09:39:58.205Z,2.14
2022-12-15T09:42:02.882Z,2.26
2022-12-15T09:44:10.991Z,2.28
2022-12-15T09:46:22.143Z,2.24
2022-12-15T09:48:26.271Z,2.23
2022-12-15T09:50:36.057Z,2.28
2022-12-15T09:52:50.736Z,2.17
2022-12-15T09:54:54.782Z,2.22
2022-12-15T09:57:04.498Z,2.20
2022-12-15T09:59:20.626Z,2.21
2022-12-15T10:01:29.269Z,2.28
2022-12-15T10:03:42.271Z,2.30
2022-12-15T10:06:15.451Z,2.33
2022-12-15T10:08:20.736Z,2.39
2022-12-15T10:10:27.199Z,2.48
2022-12-15T10:12:34.382Z,2.49
2022-12-15T10:14:41.109Z,2.55
2022-12-15T10:16:52.816Z,2.51
2022-12-15T10:19:09.216Z,2.51
2022-12-15T10:21:14.767Z,2.48
2022-12-15T10:23:19.243Z,2.46
2022-12-15T10:28:04.787Z,2.38
2022-12-15T10:30:11.617Z,2.31
2022-12-15T10:32:18.851Z,2.28
2022-12-15T10:34:27.430Z,2.38
2022-12-15T10:36:30.783Z,2.43
2022-12-15T10:38:50.864Z,2.47
2022-12-15T10:41:02.417Z,2.34
2022-12-15T10:43:14.525Z,2.37
2022-12-15T10:45:36.765Z,2.39
2022-12-15T10:47:40.065Z,2.43
2022-12-15T10:49:43.393Z,2.46
2022-12-15T10:51:50.722Z,2.56
2022-12-15T10:53:55.250Z,2.67
2022-12-15T10:56:01.460Z,2.76
2022-12-15T10:58:21.597Z,2.87
2022-12-15T11:00:29.948Z,2.82
2022-12-15T11:02:36.692Z,2.92
2022-12-15T11:04:40.549Z,2.76
2022-12-15T11:06:44.097Z,2.73
2022-12-15T11:08:49.678Z,2.73
2022-12-15T11:11:45.097Z,2.72
2022-12-15T11:14:11.410Z,2.60
2022-12-15T11:16:19.950Z,2.57
2022-12-15T11:18:29.048Z,2.57
2022-12-15T11:20:36.076Z,2.59
2022-12-15T11:22:43.424Z,2.71
2022-12-15T11:25:06.355Z,2.76
2022-12-15T11:27:22.375Z,2.77
2022-12-15T11:29:30.103Z,2.73
2022-12-15T11:31:38.420Z,2.75
2022-12-15T11:33:41.582Z,2.79
2022-12-15T11:35:54.915Z,2.73
2022-12-15T11:38:01.902Z,2.77
2022-12-15T11:40:34.810Z,2.83
2022-12-15T11:42:53.713Z,2.85
2022-12-15T11:45:04.498Z,2.83
2022-12-15T11:47:14.529Z,2.75
2022-12-15T11:49:45.422Z,2.75
2022-12-15T11:51:53.168Z,2.73
2022-12-15T11:54:06.783Z,2.74
2022-12-15T11:56:18.196Z,2.75
2022-12-15T11:58:37.768Z,2.65
2022-12-15T12:00:44.625Z,2.61
2022-12-15T12:02:59.778Z,2.55
2022-12-15T12:05:22.464Z,2.49
2022-12-15T12:07:34.603Z,2.50
2022-12-15T12:09:48.592Z,2.52
2022-12-15T12:11:55.484Z,2.53
2022-12-15T12:14:26.390Z,2.59
2022-12-15T12:16:37.708Z,2.65
2022-12-15T12:18:43.689Z,2.66
2022-12-15T12:20:51.508Z,2.66
2022-12-15T12:23:03.164Z,2.73
2022-12-15T12:25:12.261Z,2.80
2022-12-15T12:27:23.725Z,2.84
2022-12-15T12:29:31.155Z,2.87
2022-12-15T12:31:42.005Z,2.94
2022-12-15T12:33:48.600Z,2.94
2022-12-15T12:35:55.169Z,2.94
2022-12-15T12:38:04.134Z,3.01
2022-12-15T12:40:17.640Z,2.89
2022-12-15T12:42:26.112Z,2.93
2022-12-15T12:44:33.410Z,2.91
2022-12-15T12:46:42.375Z,2.92
2022-12-15T12:49:14.151Z,3.01
2022-12-15T12:51:25.076Z,3.05
2022-12-15T12:53:34.042Z,3.02
2022-12-15T12:55:40.664Z,3.01
2022-12-15T12:57:44.668Z,3.03
2022-12-15T12:59:51.244Z,3.06
2022-12-15T13:01:56.253Z,3.08
2022-12-15T13:04:13.435Z,3.08
2022-12-15T13:06:43.818Z,3.15
2022-12-15T13:08:51.678Z,3.24
2022-12-15T13:10:56.169Z,3.15
2022-12-15T13:13:00.030Z,3.25
2022-12-15T13:15:07.707Z,3.35
2022-12-15T13:17:27.197Z,3.42
2022-12-15T13:20:04.273Z,3.46
2022-12-15T13:22:24.534Z,3.54
2022-12-15T13:24:33.305Z,3.50
2022-12-15T13:26:36.512Z,3.51
2022-12-15T13:28:45.898Z,3.48
2022-12-15T13:31:27.779Z,3.43
2022-12-15T13:33:31.616Z,3.35
2022-12-15T13:35:35.186Z,3.32
2022-12-15T13:37:46.725Z,3.39
2022-12-15T13:39:57.618Z,3.38
2022-12-15T13:42:35.000Z,3.27
2022-12-15T13:44:41.405Z,3.13
2022-12-15T13:46:46.866Z,3.00
2022-12-15T13:48:54.527Z,3.00
2022-12-15T13:51:03.775Z,3.00
2022-12-15T13:53:30.841Z,3.08
2022-12-15T13:55:38.820Z,3.00
2022-12-15T13:57:50.015Z,3.00
2022-12-15T13:59:54.530Z,3.01
2022-12-15T14:01:57.944Z,2.95
2022-12-15T14:04:08.074Z,2.94
2022-12-15T14:06:15.297Z,2.90
2022-12-15T14:08:19.972Z,2.85
2022-12-15T14:10:26.672Z,2.80
2022-12-15T14:12:34.790Z,2.76
2022-12-15T14:14:45.557Z,2.76
2022-12-15T14:16:59.306Z,2.76
2022-12-15T14:19:14.621Z,2.72
2022-12-15T14:21:23.027Z,2.75
2022-12-15T14:23:28.945Z,2.71
2022-12-15T14:25:32.746Z,2.71
2022-12-15T14:27:37.530Z,2.76
2022-12-15T14:29:42.057Z,2.74
2022-12-15T14:31:46.371Z,2.80
2022-12-15T14:33:54.425Z,2.82
2022-12-15T14:35:59.383Z,2.69
2022-12-15T14:38:07.508Z,2.65
2022-12-15T14:40:15.908Z,2.67
2022-12-15T14:42:20.986Z,2.71
2022-12-15T14:44:38.093Z,2.78
2022-12-15T14:46:47.086Z,2.77
2022-12-15T14:48:56.825Z,2.76
2022-12-15T14:51:01.778Z,2.79
2022-12-15T14:53:07.732Z,2.56
2022-12-15T14:55:31.966Z,2.52
2022-12-15T14:57:42.094Z,2.61
2022-12-15T14:59:49.848Z,2.65
2022-12-15T15:02:00.522Z,2.70
2022-12-15T15:03:03.980Z,2.43
2022-12-15T15:04:05.570Z,2.73
2022-12-15T15:06:18.169Z,2.76
2022-12-15T15:08:28.519Z,2.76
2022-12-15T15:10:32.229Z,2.83
2022-12-15T15:12:43.648Z,2.84
2022-12-15T15:14:55.739Z,2.87
2022-12-15T15:17:05.069Z,2.88
2022-12-15T15:19:08.511Z,2.89
2022-12-15T15:21:25.047Z,2.92
2022-12-15T15:23:28.213Z,2.95
2022-12-15T15:25:41.328Z,2.94
2022-12-15T15:27:44.755Z,2.85
2022-12-15T15:29:50.234Z,2.91
2022-12-15T15:31:54.333Z,2.93
2022-12-15T15:33:58.956Z,2.95
2022-12-15T15:36:04.373Z,2.84
2022-12-15T15:38:23.140Z,2.90
2022-12-15T15:40:26.667Z,2.90
2022-12-15T15:42:32.650Z,2.86
2022-12-15T15:44:36.202Z,2.84
2022-12-15T15:46:46.613Z,2.90
2022-12-15T15:48:52.086Z,2.83
2022-12-15T15:50:55.922Z,2.81
2022-12-15T15:53:03.135Z,2.80
2022-12-15T15:55:07.416Z,2.69
2022-12-15T15:57:14.493Z,2.66
2022-12-15T15:59:21.047Z,2.71
2022-12-15T16:08:48.894Z,2.59
2022-12-15T16:10:52.618Z,2.53
2022-12-15T16:12:58.022Z,2.48
2022-12-15T16:15:01.086Z,2.49
2022-12-15T16:17:04.822Z,2.52
2022-12-15T16:19:08.029Z,2.60
2022-12-15T16:21:11.788Z,2.54
2022-12-15T16:23:16.562Z,2.55
2022-12-15T16:25:25.675Z,2.53
2022-12-15T16:27:28.933Z,2.36
2022-12-15T16:29:32.089Z,2.36
2022-12-15T16:31:41.332Z,2.37
2022-12-15T16:33:46.763Z,2.29
2022-12-15T16:35:50.945Z,2.26
2022-12-15T16:37:54.144Z,2.25
2022-12-15T16:39:57.308Z,2.28
2022-12-15T16:42:01.981Z,2.31
2022-12-15T16:44:05.926Z,2.26
2022-12-15T16:46:12.638Z,2.20
2022-12-15T16:48:16.288Z,2.21
2022-12-15T16:50:21.096Z,2.20
2022-12-15T16:52:24.419Z,2.25
2022-12-15T16:54:28.585Z,2.28
2022-12-15T16:56:31.799Z,2.26
2022-12-15T16:58:37.166Z,2.17
2022-12-15T17:00:40.366Z,2.19
2022-12-15T17:02:44.535Z,2.28
2022-12-15T17:04:47.852Z,2.30
2022-12-15T17:06:52.571Z,2.31
2022-12-15T17:08:56.418Z,2.30
2022-12-15T17:10:59.942Z,2.34
2022-12-15T17:13:06.004Z,2.29
2022-12-15T17:15:17.695Z,2.26
2022-12-15T17:17:21.276Z,2.32
2022-12-15T17:19:27.303Z,2.35
2022-12-15T17:21:31.863Z,2.32
2022-12-15T17:23:36.357Z,2.32
2022-12-15T17:28:05.587Z,2.39
2022-12-15T17:30:15.133Z,2.38
2022-12-15T17:32:18.449Z,2.45
2022-12-15T17:34:27.458Z,2.40
2022-12-15T17:36:30.595Z,2.40
2022-12-15T17:38:33.852Z,2.42
2022-12-15T17:40:37.108Z,2.39
2022-12-15T17:42:40.455Z,2.37
2022-12-15T17:44:46.727Z,2.39
2022-12-15T17:46:51.940Z,2.36
2022-12-15T17:49:00.941Z,2.33
2022-12-15T17:51:04.186Z,2.30
2022-12-15T17:53:07.675Z,2.29
2022-12-15T17:55:23.635Z,2.26
2022-12-15T17:57:27.057Z,2.17
2022-12-15T17:59:32.260Z,2.15
2022-12-15T18:01:35.514Z,2.08
2022-12-15T18:03:40.391Z,2.16
2022-12-15T18:05:43.839Z,2.06
2022-12-15T18:07:50.049Z,2.01
2022-12-15T18:09:53.573Z,2.02
2022-12-15T18:11:56.865Z,2.12
2022-12-15T18:14:00.427Z,2.16
2022-12-15T18:16:03.801Z,2.08
2022-12-15T18:18:09.590Z,2.11
2022-12-15T18:20:14.425Z,2.06
2022-12-15T18:22:21.105Z,2.16
2022-12-15T18:24:27.012Z,2.17
2022-12-15T18:26:31.544Z,2.22
2022-12-15T18:28:36.282Z,2.23
2022-12-15T18:30:39.559Z,2.22
2022-12-15T18:32:42.847Z,2.14
2022-12-15T18:34:46.738Z,2.09
2022-12-15T18:36:51.589Z,2.01
2022-12-15T18:38:54.930Z,1.94
2022-12-15T18:40:59.813Z,1.95
2022-12-15T18:43:03.029Z,2.00
2022-12-15T18:45:16.718Z,2.07
2022-12-15T18:47:21.332Z,2.03
2022-12-15T18:49:25.073Z,2.03
2022-12-15T18:51:28.999Z,2.04
2022-12-15T18:53:35.656Z,1.96
2022-12-15T18:55:39.017Z,1.99
2022-12-15T18:57:42.558Z,2.01
2022-12-15T18:59:45.727Z,2.02
2022-12-15T19:01:50.028Z,2.06
2022-12-15T19:03:53.442Z,2.12
2022-12-15T19:05:59.962Z,2.10
2022-12-15T19:08:10.027Z,2.00
2022-12-15T19:10:16.118Z,2.00
2022-12-15T19:12:19.664Z,1.97
2022-12-15T19:14:36.885Z,1.98
2022-12-15T19:16:57.743Z,1.99
2022-12-15T19:19:18.596Z,1.91
2022-12-15T19:21:41.613Z,1.85
2022-12-15T19:23:44.914Z,1.87
2022-12-15T19:25:50.706Z,1.80
2022-12-15T19:27:58.658Z,1.67
2022-12-15T19:30:02.370Z,1.62
2022-12-15T19:32:05.921Z,1.68
2022-12-15T19:34:09.301Z,1.80
2022-12-15T19:36:15.435Z,1.67
2022-12-15T19:38:33.267Z,1.69
2022-12-15T19:40:38.770Z,1.71
2022-12-15T19:42:44.434Z,1.68
2022-12-15T19:44:48.531Z,1.71
2022-12-15T19:46:52.404Z,1.82
2022-12-15T19:48:55.631Z,1.87
2022-12-15T19:50:58.846Z,1.86
2022-12-15T19:53:03.462Z,1.88
2022-12-15T19:55:08.613Z,1.83
2022-12-15T19:57:13.743Z,1.80
2022-12-15T19:59:41.385Z,1.80
2022-12-15T20:01:44.829Z,1.69
2022-12-15T20:03:49.899Z,1.71
2022-12-15T20:05:54.192Z,1.69
2022-12-15T20:07:57.442Z,1.56
2022-12-15T20:10:00.809Z,1.55
2022-12-15T20:12:04.003Z,1.40
2022-12-15T20:14:11.433Z,1.46
2022-12-15T20:16:18.847Z,1.51
2022-12-15T20:18:22.170Z,1.58
2022-12-15T20:20:27.375Z,1.55
2022-12-15T20:22:30.586Z,1.60
2022-12-15T20:24:34.348Z,1.65
2022-12-15T20:26:39.488Z,1.71
2022-12-15T20:28:43.152Z,1.71
2022-12-15T20:30:46.995Z,1.77
2022-12-15T20:32:51.647Z,1.80
2022-12-15T20:34:54.868Z,1.83
2022-12-15T20:36:58.188Z,1.80
2022-12-15T20:39:01.451Z,1.87
2022-12-15T20:41:04.799Z,1.96
2022-12-15T20:43:13.230Z,1.88
2022-12-15T20:45:17.181Z,1.90
2022-12-15T20:47:22.250Z,1.92
2022-12-15T20:49:32.061Z,1.98
2022-12-15T20:51:35.370Z,2.07
2022-12-15T20:53:39.161Z,2.08
2022-12-15T20:55:42.395Z,2.03
2022-12-15T20:57:45.689Z,1.73
2022-12-15T20:59:48.983Z,1.78
2022-12-15T21:01:52.630Z,1.88
2022-12-15T21:03:59.048Z,1.96
2022-12-15T21:06:03.776Z,1.91
2022-12-15T21:08:15.665Z,1.94
2022-12-15T21:10:20.766Z,2.03
2022-12-15T21:12:26.528Z,2.07
2022-12-15T21:14:29.791Z,2.10
2022-12-15T21:16:33.937Z,2.11
2022-12-15T21:19:18.608Z,2.12
2022-12-15T21:21:03.017Z,2.12
2022-12-15T21:23:06.404Z,2.13
2022-12-15T21:25:18.448Z,2.09
2022-12-15T21:27:22.099Z,2.04
2022-12-15T21:29:26.975Z,2.10
2022-12-15T21:31:30.244Z,2.09
2022-12-15T21:33:33.613Z,2.09
2022-12-15T21:35:37.566Z,2.14
2022-12-15T21:37:43.282Z,2.15
2022-12-15T21:39:46.468Z,2.02
2022-12-15T21:41:49.851Z,2.07
2022-12-15T21:43:54.977Z,2.07
2022-12-15T21:45:58.641Z,2.13
2022-12-15T21:48:19.095Z,2.17
2022-12-15T21:50:22.433Z,2.16
2022-12-15T21:52:26.981Z,2.13
2022-12-15T21:54:34.039Z,2.16
2022-12-15T21:56:37.193Z,2.19
2022-12-15T21:58:40.377Z,2.23
2022-12-15T22:00:45.726Z,2.23
2022-12-15T22:02:50.761Z,2.27
2022-12-15T22:04:55.067Z,2.25
2022-12-15T22:06:58.565Z,2.15
2022-12-15T22:09:01.705Z,2.08
2022-12-15T22:11:17.834Z,2.05
2022-12-15T22:13:22.731Z,2.11
2022-12-15T22:15:26.350Z,2.13
2022-12-15T22:17:29.731Z,2.15
2022-12-15T22:19:32.977Z,2.21
2022-12-15T22:21:36.173Z,2.25
2022-12-15T22:23:39.330Z,2.27
2022-12-15T22:25:42.851Z,2.27
2022-12-15T22:27:47.585Z,2.31
2022-12-15T22:29:51.044Z,2.33
2022-12-15T22:31:55.016Z,2.35
2022-12-15T22:33:58.356Z,2.38
2022-12-15T22:36:01.564Z,2.40
2022-12-15T22:38:04.697Z,2.33
2022-12-15T22:40:08.962Z,2.32
2022-12-15T22:42:16.060Z,2.33
2022-12-15T22:44:23.186Z,2.33
2022-12-15T22:46:26.388Z,2.34
2022-12-15T22:48:34.439Z,2.30
2022-12-15T22:50:37.703Z,2.32
2022-12-15T22:52:40.842Z,2.34
2022-12-15T22:54:45.907Z,2.36
2022-12-15T22:56:51.995Z,2.41
2022-12-15T22:58:58.590Z,2.40
2022-12-15T23:01:03.532Z,2.43
2022-12-15T23:03:09.166Z,2.42
2022-12-15T23:05:15.182Z,2.36
2022-12-15T23:07:19.860Z,2.36
2022-12-15T23:09:23.033Z,2.38
2022-12-15T23:11:37.093Z,2.31
2022-12-15T23:13:40.255Z,2.27
2022-12-15T23:16:01.561Z,2.19
2022-12-15T23:18:06.375Z,2.09
2022-12-15T23:20:10.817Z,2.01
2022-12-15T23:22:14.649Z,1.93
2022-12-15T23:24:17.901Z,1.87
2022-12-15T23:26:23.309Z,1.85
2022-12-15T23:28:27.698Z,1.77
2022-12-15T23:30:31.171Z,1.70
2022-12-15T23:32:34.538Z,1.68
2022-12-15T23:34:39.250Z,1.71
2022-12-15T23:36:42.532Z,1.77
2022-12-15T23:38:46.361Z,1.80
2022-12-15T23:40:52.692Z,1.82
2022-12-15T23:42:56.215Z,1.89
2022-12-15T23:44:59.494Z,1.89
2022-12-15T23:47:02.756Z,1.88
2022-12-15T23:49:06.711Z,1.89
2022-12-15T23:51:16.204Z,1.86
2022-12-15T23:53:19.385Z,1.88
2022-12-15T23:55:22.544Z,1.92
2022-12-15T23:57:25.791Z,1.94
2022-12-15T23:59:29.191Z,1.95
